sensor_id;sensor_type;location;lat;lon;timestamp;P1;durP1;ratioP1;P2;durP2;ratioP2
49366;SDS011;35245;52.026;8.540;2022-10-17T00:00:52;10.48;;;5.85;;
49366;SDS011;35245;52.026;8.540;2022-10-17T00:03:19;8.00;;;6.40;;
49366;SDS011;35245;52.026;8.540;2022-10-17T00:05:47;8.50;;;5.63;;
49366;SDS011;35245;52.026;8.540;2022-10-17T00:08:15;7.97;;;5.88;;
49366;SDS011;35245;52.026;8.540;2022-10-17T00:10:43;7.72;;;5.78;;
49366;SDS011;35245;52.026;8.540;2022-10-17T00:13:10;9.98;;;6.43;;
49366;SDS011;35245;52.026;8.540;2022-10-17T00:15:37;9.27;;;6.00;;
49366;SDS011;35245;52.026;8.540;2022-10-17T00:18:10;9.95;;;6.95;;
49366;SDS011;35245;52.026;8.540;2022-10-17T00:20:37;9.63;;;6.50;;
49366;SDS011;35245;52.026;8.540;2022-10-17T00:23:04;9.02;;;6.25;;
49366;SDS011;35245;52.026;8.540;2022-10-17T00:25:31;10.52;;;6.05;;
49366;SDS011;35245;52.026;8.540;2022-10-17T00:27:58;9.88;;;6.68;;
49366;SDS011;35245;52.026;8.540;2022-10-17T00:30:25;11.32;;;6.55;;
49366;SDS011;35245;52.026;8.540;2022-10-17T00:32:52;12.10;;;7.35;;
49366;SDS011;35245;52.026;8.540;2022-10-17T00:35:20;11.40;;;8.15;;
49366;SDS011;35245;52.026;8.540;2022-10-17T00:37:47;9.65;;;6.53;;
49366;SDS011;35245;52.026;8.540;2022-10-17T00:40:14;14.80;;;7.55;;
49366;SDS011;35245;52.026;8.540;2022-10-17T00:42:41;10.88;;;8.05;;
49366;SDS011;35245;52.026;8.540;2022-10-17T00:45:19;10.13;;;7.70;;
49366;SDS011;35245;52.026;8.540;2022-10-17T00:47:50;11.32;;;7.50;;
49366;SDS011;35245;52.026;8.540;2022-10-17T00:50:20;12.50;;;8.15;;
49366;SDS011;35245;52.026;8.540;2022-10-17T00:52:48;10.95;;;8.70;;
49366;SDS011;35245;52.026;8.540;2022-10-17T00:55:16;11.77;;;8.20;;
49366;SDS011;35245;52.026;8.540;2022-10-17T00:57:46;13.52;;;8.75;;
49366;SDS011;35245;52.026;8.540;2022-10-17T01:00:14;11.38;;;7.82;;
49366;SDS011;35245;52.026;8.540;2022-10-17T01:02:41;12.23;;;8.50;;
49366;SDS011;35245;52.026;8.540;2022-10-17T01:05:11;11.43;;;8.00;;
49366;SDS011;35245;52.026;8.540;2022-10-17T01:07:40;14.10;;;9.88;;
49366;SDS011;35245;52.026;8.540;2022-10-17T01:10:08;12.27;;;8.77;;
49366;SDS011;35245;52.026;8.540;2022-10-17T01:12:38;11.65;;;8.75;;
49366;SDS011;35245;52.026;8.540;2022-10-17T01:15:19;12.52;;;8.75;;
49366;SDS011;35245;52.026;8.540;2022-10-17T01:17:57;12.02;;;8.48;;
49366;SDS011;35245;52.026;8.540;2022-10-17T01:26:53;13.27;;;8.95;;
49366;SDS011;35245;52.026;8.540;2022-10-17T01:29:35;12.90;;;10.25;;
49366;SDS011;35245;52.026;8.540;2022-10-17T01:32:14;12.80;;;10.82;;
49366;SDS011;35245;52.026;8.540;2022-10-17T01:34:47;12.77;;;9.85;;
49366;SDS011;35245;52.026;8.540;2022-10-17T01:37:20;12.68;;;10.05;;
49366;SDS011;35245;52.026;8.540;2022-10-17T01:39:54;13.23;;;9.68;;
49366;SDS011;35245;52.026;8.540;2022-10-17T01:42:26;12.60;;;10.45;;
49366;SDS011;35245;52.026;8.540;2022-10-17T01:44:58;14.18;;;9.90;;
49366;SDS011;35245;52.026;8.540;2022-10-17T01:47:30;16.67;;;11.07;;
49366;SDS011;35245;52.026;8.540;2022-10-17T01:49:59;17.20;;;10.75;;
49366;SDS011;35245;52.026;8.540;2022-10-17T01:52:32;11.60;;;10.13;;
49366;SDS011;35245;52.026;8.540;2022-10-17T01:55:02;13.68;;;10.25;;
49366;SDS011;35245;52.026;8.540;2022-10-17T01:57:32;13.82;;;11.45;;
49366;SDS011;35245;52.026;8.540;2022-10-17T02:00:02;14.43;;;10.02;;
49366;SDS011;35245;52.026;8.540;2022-10-17T02:02:31;13.48;;;10.80;;
49366;SDS011;35245;52.026;8.540;2022-10-17T02:04:58;14.02;;;10.27;;
49366;SDS011;35245;52.026;8.540;2022-10-17T02:07:28;13.93;;;9.98;;
49366;SDS011;35245;52.026;8.540;2022-10-17T02:09:55;15.43;;;10.63;;
49366;SDS011;35245;52.026;8.540;2022-10-17T02:12:36;12.75;;;9.95;;
49366;SDS011;35245;52.026;8.540;2022-10-17T02:15:18;14.52;;;10.65;;
49366;SDS011;35245;52.026;8.540;2022-10-17T02:18:09;14.77;;;11.02;;
49366;SDS011;35245;52.026;8.540;2022-10-17T02:20:45;13.23;;;9.98;;
49366;SDS011;35245;52.026;8.540;2022-10-17T02:23:16;12.70;;;10.75;;
49366;SDS011;35245;52.026;8.540;2022-10-17T02:25:47;14.93;;;11.20;;
49366;SDS011;35245;52.026;8.540;2022-10-17T02:28:19;13.75;;;10.38;;
49366;SDS011;35245;52.026;8.540;2022-10-17T02:30:49;12.77;;;10.63;;
49366;SDS011;35245;52.026;8.540;2022-10-17T02:33:21;13.52;;;10.73;;
49366;SDS011;35245;52.026;8.540;2022-10-17T02:35:51;13.50;;;10.18;;
49366;SDS011;35245;52.026;8.540;2022-10-17T02:38:20;12.77;;;10.52;;
49366;SDS011;35245;52.026;8.540;2022-10-17T02:40:48;13.70;;;10.00;;
49366;SDS011;35245;52.026;8.540;2022-10-17T02:43:16;14.20;;;10.80;;
49366;SDS011;35245;52.026;8.540;2022-10-17T02:45:43;16.90;;;12.55;;
49366;SDS011;35245;52.026;8.540;2022-10-17T02:48:11;14.23;;;12.07;;
49366;SDS011;35245;52.026;8.540;2022-10-17T02:50:45;12.57;;;10.40;;
49366;SDS011;35245;52.026;8.540;2022-10-17T02:53:19;13.88;;;10.52;;
49366;SDS011;35245;52.026;8.540;2022-10-17T02:55:52;11.95;;;9.68;;
49366;SDS011;35245;52.026;8.540;2022-10-17T02:58:24;15.05;;;10.93;;
49366;SDS011;35245;52.026;8.540;2022-10-17T03:00:53;15.98;;;11.68;;
49366;SDS011;35245;52.026;8.540;2022-10-17T03:03:21;13.00;;;10.52;;
49366;SDS011;35245;52.026;8.540;2022-10-17T03:05:50;16.08;;;9.88;;
49366;SDS011;35245;52.026;8.540;2022-10-17T03:08:18;14.82;;;10.57;;
49366;SDS011;35245;52.026;8.540;2022-10-17T03:10:45;12.10;;;10.13;;
49366;SDS011;35245;52.026;8.540;2022-10-17T03:13:15;13.30;;;9.98;;
49366;SDS011;35245;52.026;8.540;2022-10-17T03:15:42;16.13;;;11.45;;
49366;SDS011;35245;52.026;8.540;2022-10-17T03:18:09;13.38;;;9.13;;
49366;SDS011;35245;52.026;8.540;2022-10-17T03:20:38;11.77;;;9.23;;
49366;SDS011;35245;52.026;8.540;2022-10-17T03:23:07;11.73;;;9.93;;
49366;SDS011;35245;52.026;8.540;2022-10-17T03:25:33;11.10;;;9.18;;
49366;SDS011;35245;52.026;8.540;2022-10-17T03:28:00;12.65;;;8.98;;
49366;SDS011;35245;52.026;8.540;2022-10-17T03:30:29;9.43;;;8.40;;
49366;SDS011;35245;52.026;8.540;2022-10-17T03:32:56;11.93;;;9.90;;
49366;SDS011;35245;52.026;8.540;2022-10-17T03:35:24;12.68;;;9.80;;
49366;SDS011;35245;52.026;8.540;2022-10-17T03:37:51;11.05;;;9.77;;
49366;SDS011;35245;52.026;8.540;2022-10-17T03:40:21;11.93;;;8.88;;
49366;SDS011;35245;52.026;8.540;2022-10-17T03:42:48;15.70;;;9.65;;
49366;SDS011;35245;52.026;8.540;2022-10-17T03:45:15;11.30;;;8.63;;
49366;SDS011;35245;52.026;8.540;2022-10-17T03:47:42;12.70;;;8.60;;
49366;SDS011;35245;52.026;8.540;2022-10-17T03:50:09;10.88;;;7.40;;
49366;SDS011;35245;52.026;8.540;2022-10-17T03:52:39;11.35;;;8.80;;
49366;SDS011;35245;52.026;8.540;2022-10-17T03:55:06;12.23;;;6.97;;
49366;SDS011;35245;52.026;8.540;2022-10-17T03:57:35;9.55;;;6.93;;
49366;SDS011;35245;52.026;8.540;2022-10-17T04:00:02;9.05;;;6.30;;
49366;SDS011;35245;52.026;8.540;2022-10-17T04:02:30;7.85;;;6.28;;
49366;SDS011;35245;52.026;8.540;2022-10-17T04:04:59;9.82;;;6.30;;
49366;SDS011;35245;52.026;8.540;2022-10-17T04:07:28;9.25;;;6.70;;
49366;SDS011;35245;52.026;8.540;2022-10-17T04:09:55;9.25;;;6.20;;
49366;SDS011;35245;52.026;8.540;2022-10-17T04:12:22;9.73;;;7.28;;
49366;SDS011;35245;52.026;8.540;2022-10-17T04:14:51;9.80;;;6.47;;
49366;SDS011;35245;52.026;8.540;2022-10-17T04:17:21;10.32;;;6.70;;
49366;SDS011;35245;52.026;8.540;2022-10-17T04:19:48;8.73;;;6.05;;
49366;SDS011;35245;52.026;8.540;2022-10-17T04:22:15;13.30;;;6.93;;
49366;SDS011;35245;52.026;8.540;2022-10-17T04:24:42;8.43;;;6.85;;
49366;SDS011;35245;52.026;8.540;2022-10-17T04:27:09;11.55;;;7.88;;
49366;SDS011;35245;52.026;8.540;2022-10-17T04:29:36;9.02;;;6.40;;
49366;SDS011;35245;52.026;8.540;2022-10-17T04:32:04;7.13;;;5.68;;
49366;SDS011;35245;52.026;8.540;2022-10-17T04:34:31;8.43;;;6.40;;
49366;SDS011;35245;52.026;8.540;2022-10-17T04:36:58;7.78;;;5.53;;
49366;SDS011;35245;52.026;8.540;2022-10-17T04:39:25;9.07;;;5.88;;
49366;SDS011;35245;52.026;8.540;2022-10-17T04:41:52;7.32;;;5.30;;
49366;SDS011;35245;52.026;8.540;2022-10-17T04:44:20;8.30;;;5.00;;
49366;SDS011;35245;52.026;8.540;2022-10-17T04:46:47;8.90;;;4.97;;
49366;SDS011;35245;52.026;8.540;2022-10-17T04:49:16;6.50;;;4.43;;
49366;SDS011;35245;52.026;8.540;2022-10-17T04:51:43;7.57;;;4.65;;
49366;SDS011;35245;52.026;8.540;2022-10-17T04:54:10;6.18;;;4.38;;
49366;SDS011;35245;52.026;8.540;2022-10-17T04:56:37;7.57;;;4.95;;
49366;SDS011;35245;52.026;8.540;2022-10-17T04:59:04;6.40;;;4.65;;
49366;SDS011;35245;52.026;8.540;2022-10-17T05:01:31;7.30;;;4.47;;
49366;SDS011;35245;52.026;8.540;2022-10-17T05:03:58;10.93;;;4.72;;
49366;SDS011;35245;52.026;8.540;2022-10-17T05:06:26;6.43;;;4.50;;
49366;SDS011;35245;52.026;8.540;2022-10-17T05:08:53;10.30;;;4.97;;
49366;SDS011;35245;52.026;8.540;2022-10-17T05:11:22;7.68;;;5.03;;
49366;SDS011;35245;52.026;8.540;2022-10-17T05:13:50;5.80;;;4.25;;
49366;SDS011;35245;52.026;8.540;2022-10-17T05:16:17;8.07;;;4.95;;
49366;SDS011;35245;52.026;8.540;2022-10-17T05:18:46;8.68;;;4.90;;
49366;SDS011;35245;52.026;8.540;2022-10-17T05:21:14;10.57;;;4.90;;
49366;SDS011;35245;52.026;8.540;2022-10-17T05:23:42;6.75;;;4.10;;
49366;SDS011;35245;52.026;8.540;2022-10-17T05:26:10;9.82;;;4.80;;
49366;SDS011;35245;52.026;8.540;2022-10-17T05:28:37;9.48;;;4.43;;
49366;SDS011;35245;52.026;8.540;2022-10-17T05:31:04;7.85;;;4.50;;
49366;SDS011;35245;52.026;8.540;2022-10-17T05:33:32;8.98;;;4.53;;
49366;SDS011;35245;52.026;8.540;2022-10-17T05:36:00;6.85;;;3.90;;
49366;SDS011;35245;52.026;8.540;2022-10-17T05:38:27;12.85;;;6.25;;
49366;SDS011;35245;52.026;8.540;2022-10-17T05:40:57;8.00;;;4.25;;
49366;SDS011;35245;52.026;8.540;2022-10-17T05:43:24;7.38;;;4.68;;
49366;SDS011;35245;52.026;8.540;2022-10-17T05:45:52;10.70;;;4.28;;
49366;SDS011;35245;52.026;8.540;2022-10-17T05:48:19;8.15;;;4.13;;
49366;SDS011;35245;52.026;8.540;2022-10-17T05:50:47;9.15;;;4.82;;
49366;SDS011;35245;52.026;8.540;2022-10-17T05:53:14;7.32;;;5.45;;
49366;SDS011;35245;52.026;8.540;2022-10-17T05:55:41;6.65;;;4.30;;
49366;SDS011;35245;52.026;8.540;2022-10-17T05:58:09;9.75;;;5.40;;
49366;SDS011;35245;52.026;8.540;2022-10-17T06:00:36;8.38;;;5.18;;
49366;SDS011;35245;52.026;8.540;2022-10-17T06:03:03;10.15;;;6.65;;
49366;SDS011;35245;52.026;8.540;2022-10-17T06:05:30;10.75;;;6.03;;
49366;SDS011;35245;52.026;8.540;2022-10-17T06:07:57;8.57;;;5.60;;
49366;SDS011;35245;52.026;8.540;2022-10-17T06:10:26;13.85;;;5.97;;
49366;SDS011;35245;52.026;8.540;2022-10-17T06:12:55;9.88;;;5.68;;
49366;SDS011;35245;52.026;8.540;2022-10-17T06:15:24;7.43;;;4.95;;
49366;SDS011;35245;52.026;8.540;2022-10-17T06:17:51;6.18;;;4.43;;
49366;SDS011;35245;52.026;8.540;2022-10-17T06:20:21;7.78;;;5.40;;
49366;SDS011;35245;52.026;8.540;2022-10-17T06:22:48;6.70;;;5.15;;
49366;SDS011;35245;52.026;8.540;2022-10-17T06:25:15;15.10;;;5.65;;
49366;SDS011;35245;52.026;8.540;2022-10-17T06:27:42;8.32;;;4.53;;
49366;SDS011;35245;52.026;8.540;2022-10-17T06:30:09;6.72;;;4.53;;
49366;SDS011;35245;52.026;8.540;2022-10-17T06:32:37;7.07;;;4.45;;
49366;SDS011;35245;52.026;8.540;2022-10-17T06:35:05;12.20;;;5.15;;
49366;SDS011;35245;52.026;8.540;2022-10-17T06:37:33;6.43;;;4.10;;
49366;SDS011;35245;52.026;8.540;2022-10-17T06:40:01;7.82;;;5.05;;
49366;SDS011;35245;52.026;8.540;2022-10-17T06:42:29;10.25;;;5.10;;
49366;SDS011;35245;52.026;8.540;2022-10-17T06:44:56;8.65;;;5.13;;
49366;SDS011;35245;52.026;8.540;2022-10-17T06:47:23;10.68;;;5.38;;
49366;SDS011;35245;52.026;8.540;2022-10-17T06:49:51;7.20;;;4.28;;
49366;SDS011;35245;52.026;8.540;2022-10-17T06:52:18;9.75;;;4.65;;
49366;SDS011;35245;52.026;8.540;2022-10-17T06:54:45;8.50;;;4.53;;
49366;SDS011;35245;52.026;8.540;2022-10-17T06:57:15;6.90;;;4.00;;
49366;SDS011;35245;52.026;8.540;2022-10-17T06:59:43;6.45;;;4.15;;
49366;SDS011;35245;52.026;8.540;2022-10-17T07:02:10;12.88;;;4.65;;
49366;SDS011;35245;52.026;8.540;2022-10-17T07:04:37;6.93;;;4.40;;
49366;SDS011;35245;52.026;8.540;2022-10-17T07:07:06;10.73;;;4.57;;
49366;SDS011;35245;52.026;8.540;2022-10-17T07:09:33;6.60;;;4.55;;
49366;SDS011;35245;52.026;8.540;2022-10-17T07:12:01;12.80;;;5.25;;
49366;SDS011;35245;52.026;8.540;2022-10-17T07:14:30;6.35;;;4.43;;
49366;SDS011;35245;52.026;8.540;2022-10-17T07:16:57;7.38;;;4.47;;
49366;SDS011;35245;52.026;8.540;2022-10-17T07:19:25;6.75;;;4.72;;
49366;SDS011;35245;52.026;8.540;2022-10-17T07:21:52;6.00;;;4.72;;
49366;SDS011;35245;52.026;8.540;2022-10-17T07:24:20;7.38;;;4.75;;
49366;SDS011;35245;52.026;8.540;2022-10-17T07:26:47;7.93;;;4.30;;
49366;SDS011;35245;52.026;8.540;2022-10-17T07:29:14;7.85;;;4.60;;
49366;SDS011;35245;52.026;8.540;2022-10-17T07:31:41;6.20;;;4.65;;
49366;SDS011;35245;52.026;8.540;2022-10-17T07:34:09;8.65;;;5.18;;
49366;SDS011;35245;52.026;8.540;2022-10-17T07:36:36;6.97;;;4.47;;
49366;SDS011;35245;52.026;8.540;2022-10-17T07:39:06;8.90;;;4.82;;
49366;SDS011;35245;52.026;8.540;2022-10-17T07:41:34;6.10;;;4.32;;
49366;SDS011;35245;52.026;8.540;2022-10-17T07:44:02;6.75;;;4.35;;
49366;SDS011;35245;52.026;8.540;2022-10-17T07:46:29;6.15;;;3.60;;
49366;SDS011;35245;52.026;8.540;2022-10-17T07:48:55;5.97;;;4.20;;
49366;SDS011;35245;52.026;8.540;2022-10-17T07:51:22;8.73;;;4.00;;
49366;SDS011;35245;52.026;8.540;2022-10-17T07:53:49;6.90;;;4.60;;
49366;SDS011;35245;52.026;8.540;2022-10-17T07:56:16;9.05;;;4.72;;
49366;SDS011;35245;52.026;8.540;2022-10-17T07:58:46;6.80;;;4.07;;
49366;SDS011;35245;52.026;8.540;2022-10-17T08:01:14;8.95;;;4.10;;
49366;SDS011;35245;52.026;8.540;2022-10-17T08:03:42;9.80;;;4.22;;
49366;SDS011;35245;52.026;8.540;2022-10-17T08:06:10;4.55;;;4.07;;
49366;SDS011;35245;52.026;8.540;2022-10-17T08:08:37;9.63;;;4.47;;
49366;SDS011;35245;52.026;8.540;2022-10-17T08:11:05;9.48;;;4.25;;
49366;SDS011;35245;52.026;8.540;2022-10-17T08:13:34;5.97;;;4.18;;
49366;SDS011;35245;52.026;8.540;2022-10-17T08:16:04;8.00;;;4.15;;
49366;SDS011;35245;52.026;8.540;2022-10-17T08:18:32;6.93;;;4.05;;
49366;SDS011;35245;52.026;8.540;2022-10-17T08:21:00;9.32;;;3.63;;
49366;SDS011;35245;52.026;8.540;2022-10-17T08:23:28;5.68;;;3.28;;
49366;SDS011;35245;52.026;8.540;2022-10-17T08:25:57;5.75;;;3.45;;
49366;SDS011;35245;52.026;8.540;2022-10-17T08:28:25;9.32;;;4.10;;
49366;SDS011;35245;52.026;8.540;2022-10-17T08:30:52;3.75;;;3.08;;
49366;SDS011;35245;52.026;8.540;2022-10-17T08:33:20;8.90;;;4.13;;
49366;SDS011;35245;52.026;8.540;2022-10-17T08:35:47;7.07;;;3.85;;
49366;SDS011;35245;52.026;8.540;2022-10-17T08:38:14;4.57;;;3.38;;
49366;SDS011;35245;52.026;8.540;2022-10-17T08:40:41;7.25;;;3.60;;
49366;SDS011;35245;52.026;8.540;2022-10-17T08:43:18;6.82;;;3.72;;
49366;SDS011;35245;52.026;8.540;2022-10-17T08:45:54;8.85;;;3.95;;
49366;SDS011;35245;52.026;8.540;2022-10-17T08:48:26;6.53;;;3.55;;
49366;SDS011;35245;52.026;8.540;2022-10-17T08:50:55;9.98;;;3.70;;
49366;SDS011;35245;52.026;8.540;2022-10-17T08:53:26;5.60;;;3.47;;
49366;SDS011;35245;52.026;8.540;2022-10-17T08:55:56;9.30;;;4.28;;
49366;SDS011;35245;52.026;8.540;2022-10-17T08:58:24;6.82;;;3.25;;
49366;SDS011;35245;52.026;8.540;2022-10-17T09:00:57;6.38;;;3.58;;
49366;SDS011;35245;52.026;8.540;2022-10-17T09:03:34;5.75;;;3.20;;
49366;SDS011;35245;52.026;8.540;2022-10-17T09:06:11;7.60;;;3.22;;
49366;SDS011;35245;52.026;8.540;2022-10-17T09:08:48;7.90;;;3.22;;
49366;SDS011;35245;52.026;8.540;2022-10-17T09:11:26;7.57;;;3.33;;
49366;SDS011;35245;52.026;8.540;2022-10-17T09:14:06;5.57;;;3.38;;
49366;SDS011;35245;52.026;8.540;2022-10-17T09:16:47;8.10;;;3.03;;
49366;SDS011;35245;52.026;8.540;2022-10-17T09:19:24;7.80;;;3.53;;
49366;SDS011;35245;52.026;8.540;2022-10-17T09:21:53;6.93;;;3.25;;
49366;SDS011;35245;52.026;8.540;2022-10-17T09:24:23;6.00;;;3.08;;
49366;SDS011;35245;52.026;8.540;2022-10-17T09:26:59;8.45;;;3.67;;
49366;SDS011;35245;52.026;8.540;2022-10-17T09:29:26;8.98;;;3.35;;
49366;SDS011;35245;52.026;8.540;2022-10-17T09:31:56;7.45;;;3.20;;
49366;SDS011;35245;52.026;8.540;2022-10-17T09:34:28;5.40;;;2.70;;
49366;SDS011;35245;52.026;8.540;2022-10-17T09:36:57;8.35;;;3.45;;
49366;SDS011;35245;52.026;8.540;2022-10-17T09:39:24;8.73;;;2.92;;
49366;SDS011;35245;52.026;8.540;2022-10-17T09:41:56;5.60;;;3.15;;
49366;SDS011;35245;52.026;8.540;2022-10-17T09:44:27;6.03;;;3.20;;
49366;SDS011;35245;52.026;8.540;2022-10-17T09:46:59;6.47;;;2.95;;
49366;SDS011;35245;52.026;8.540;2022-10-17T09:49:53;6.32;;;3.10;;
49366;SDS011;35245;52.026;8.540;2022-10-17T09:52:21;5.22;;;2.90;;
49366;SDS011;35245;52.026;8.540;2022-10-17T09:57:20;5.68;;;3.10;;
49366;SDS011;35245;52.026;8.540;2022-10-17T09:59:55;5.35;;;3.20;;
49366;SDS011;35245;52.026;8.540;2022-10-17T10:02:25;6.35;;;2.55;;
49366;SDS011;35245;52.026;8.540;2022-10-17T10:04:55;6.07;;;2.95;;
49366;SDS011;35245;52.026;8.540;2022-10-17T10:07:27;5.78;;;2.75;;
49366;SDS011;35245;52.026;8.540;2022-10-17T10:09:55;4.93;;;3.03;;
49366;SDS011;35245;52.026;8.540;2022-10-17T10:12:24;9.73;;;3.85;;
49366;SDS011;35245;52.026;8.540;2022-10-17T10:14:52;7.70;;;3.13;;
49366;SDS011;35245;52.026;8.540;2022-10-17T10:17:25;5.30;;;3.15;;
49366;SDS011;35245;52.026;8.540;2022-10-17T10:23:04;5.80;;;3.10;;
49366;SDS011;35245;52.026;8.540;2022-10-17T10:25:32;4.78;;;3.05;;
49366;SDS011;35245;52.026;8.540;2022-10-17T10:28:00;5.88;;;3.20;;
49366;SDS011;35245;52.026;8.540;2022-10-17T10:30:29;5.20;;;3.55;;
49366;SDS011;35245;52.026;8.540;2022-10-17T10:32:58;6.70;;;3.33;;
49366;SDS011;35245;52.026;8.540;2022-10-17T10:35:30;5.68;;;3.08;;
49366;SDS011;35245;52.026;8.540;2022-10-17T10:37:58;5.80;;;2.95;;
49366;SDS011;35245;52.026;8.540;2022-10-17T10:40:29;4.03;;;2.78;;
49366;SDS011;35245;52.026;8.540;2022-10-17T10:42:58;6.03;;;3.28;;
49366;SDS011;35245;52.026;8.540;2022-10-17T10:45:27;9.73;;;3.38;;
49366;SDS011;35245;52.026;8.540;2022-10-17T10:47:55;7.40;;;3.40;;
49366;SDS011;35245;52.026;8.540;2022-10-17T10:50:24;5.88;;;3.33;;
49366;SDS011;35245;52.026;8.540;2022-10-17T10:52:57;6.93;;;3.35;;
49366;SDS011;35245;52.026;8.540;2022-10-17T10:55:34;10.48;;;3.38;;
49366;SDS011;35245;52.026;8.540;2022-10-17T10:58:05;6.72;;;3.90;;
49366;SDS011;35245;52.026;8.540;2022-10-17T11:00:39;10.52;;;3.42;;
49366;SDS011;35245;52.026;8.540;2022-10-17T11:03:08;7.75;;;3.25;;
49366;SDS011;35245;52.026;8.540;2022-10-17T11:05:42;8.20;;;3.22;;
49366;SDS011;35245;52.026;8.540;2022-10-17T11:08:17;9.40;;;3.97;;
49366;SDS011;35245;52.026;8.540;2022-10-17T11:13:35;9.18;;;3.35;;
49366;SDS011;35245;52.026;8.540;2022-10-17T11:16:14;10.00;;;3.67;;
49366;SDS011;35245;52.026;8.540;2022-10-17T11:18:46;7.25;;;3.10;;
49366;SDS011;35245;52.026;8.540;2022-10-17T11:21:15;7.40;;;3.67;;
49366;SDS011;35245;52.026;8.540;2022-10-17T11:23:47;6.25;;;3.55;;
49366;SDS011;35245;52.026;8.540;2022-10-17T11:26:19;7.72;;;3.30;;
49366;SDS011;35245;52.026;8.540;2022-10-17T11:28:51;9.23;;;3.30;;
49366;SDS011;35245;52.026;8.540;2022-10-17T11:31:19;7.47;;;3.42;;
49366;SDS011;35245;52.026;8.540;2022-10-17T11:33:48;8.90;;;3.58;;
49366;SDS011;35245;52.026;8.540;2022-10-17T11:36:17;6.93;;;3.40;;
49366;SDS011;35245;52.026;8.540;2022-10-17T11:38:48;9.95;;;3.95;;
49366;SDS011;35245;52.026;8.540;2022-10-17T11:41:18;9.95;;;3.40;;
49366;SDS011;35245;52.026;8.540;2022-10-17T11:43:49;8.30;;;3.70;;
49366;SDS011;35245;52.026;8.540;2022-10-17T11:46:21;8.68;;;3.70;;
49366;SDS011;35245;52.026;8.540;2022-10-17T11:48:54;7.60;;;3.38;;
49366;SDS011;35245;52.026;8.540;2022-10-17T11:51:26;5.55;;;3.33;;
49366;SDS011;35245;52.026;8.540;2022-10-17T11:53:58;7.97;;;3.20;;
49366;SDS011;35245;52.026;8.540;2022-10-17T11:56:32;8.80;;;3.80;;
49366;SDS011;35245;52.026;8.540;2022-10-17T11:59:20;10.02;;;3.53;;
49366;SDS011;35245;52.026;8.540;2022-10-17T12:04:37;7.97;;;3.28;;
49366;SDS011;35245;52.026;8.540;2022-10-17T12:07:12;8.90;;;3.78;;
49366;SDS011;35245;52.026;8.540;2022-10-17T12:09:45;11.88;;;5.07;;
49366;SDS011;35245;52.026;8.540;2022-10-17T12:12:22;9.90;;;3.65;;
49366;SDS011;35245;52.026;8.540;2022-10-17T12:14:51;10.13;;;4.03;;
49366;SDS011;35245;52.026;8.540;2022-10-17T12:17:23;8.52;;;3.83;;
49366;SDS011;35245;52.026;8.540;2022-10-17T12:20:16;14.23;;;3.65;;
49366;SDS011;35245;52.026;8.540;2022-10-17T12:22:55;14.60;;;3.97;;
49366;SDS011;35245;52.026;8.540;2022-10-17T12:25:26;11.40;;;3.60;;
49366;SDS011;35245;52.026;8.540;2022-10-17T12:30:34;10.48;;;3.78;;
49366;SDS011;35245;52.026;8.540;2022-10-17T12:33:02;10.73;;;3.78;;
49366;SDS011;35245;52.026;8.540;2022-10-17T12:35:32;5.95;;;3.58;;
49366;SDS011;35245;52.026;8.540;2022-10-17T12:38:01;10.95;;;3.40;;
49366;SDS011;35245;52.026;8.540;2022-10-17T12:40:59;7.88;;;3.70;;
49366;SDS011;35245;52.026;8.540;2022-10-17T12:46:39;12.15;;;3.75;;
49366;SDS011;35245;52.026;8.540;2022-10-17T12:49:19;8.88;;;3.30;;
49366;SDS011;35245;52.026;8.540;2022-10-17T12:54:49;7.00;;;3.75;;
49366;SDS011;35245;52.026;8.540;2022-10-17T12:57:24;13.70;;;8.77;;
49366;SDS011;35245;52.026;8.540;2022-10-17T12:59:55;9.60;;;3.65;;
49366;SDS011;35245;52.026;8.540;2022-10-17T13:02:24;11.50;;;4.18;;
49366;SDS011;35245;52.026;8.540;2022-10-17T13:04:54;10.13;;;4.38;;
49366;SDS011;35245;52.026;8.540;2022-10-17T13:09:50;6.63;;;3.85;;
49366;SDS011;35245;52.026;8.540;2022-10-17T13:12:19;9.43;;;3.95;;
49366;SDS011;35245;52.026;8.540;2022-10-17T13:14:51;9.65;;;3.97;;
49366;SDS011;35245;52.026;8.540;2022-10-17T13:17:20;9.55;;;4.03;;
49366;SDS011;35245;52.026;8.540;2022-10-17T13:19:49;8.88;;;4.03;;
49366;SDS011;35245;52.026;8.540;2022-10-17T13:22:17;9.52;;;3.92;;
49366;SDS011;35245;52.026;8.540;2022-10-17T13:25:04;9.35;;;3.97;;
49366;SDS011;35245;52.026;8.540;2022-10-17T13:27:35;17.83;;;4.60;;
49366;SDS011;35245;52.026;8.540;2022-10-17T13:32:49;11.13;;;4.68;;
49366;SDS011;35245;52.026;8.540;2022-10-17T13:35:21;14.18;;;5.00;;
49366;SDS011;35245;52.026;8.540;2022-10-17T13:37:50;12.20;;;5.00;;
49366;SDS011;35245;52.026;8.540;2022-10-17T13:40:18;7.18;;;3.85;;
49366;SDS011;35245;52.026;8.540;2022-10-17T13:42:48;11.52;;;4.35;;
49366;SDS011;35245;52.026;8.540;2022-10-17T13:45:16;10.25;;;4.03;;
49366;SDS011;35245;52.026;8.540;2022-10-17T13:47:45;9.50;;;4.10;;
49366;SDS011;35245;52.026;8.540;2022-10-17T13:50:18;13.30;;;4.22;;
49366;SDS011;35245;52.026;8.540;2022-10-17T13:55:31;7.38;;;3.70;;
49366;SDS011;35245;52.026;8.540;2022-10-17T13:58:09;9.90;;;3.72;;
49366;SDS011;35245;52.026;8.540;2022-10-17T14:00:41;12.88;;;3.70;;
49366;SDS011;35245;52.026;8.540;2022-10-17T14:03:09;13.95;;;3.80;;
49366;SDS011;35245;52.026;8.540;2022-10-17T14:08:34;12.23;;;3.90;;
49366;SDS011;35245;52.026;8.540;2022-10-17T14:11:02;12.23;;;4.03;;
49366;SDS011;35245;52.026;8.540;2022-10-17T14:13:35;11.63;;;4.10;;
49366;SDS011;35245;52.026;8.540;2022-10-17T14:16:03;12.35;;;4.28;;
49366;SDS011;35245;52.026;8.540;2022-10-17T14:18:33;14.18;;;5.47;;
49366;SDS011;35245;52.026;8.540;2022-10-17T14:21:01;11.55;;;4.63;;
49366;SDS011;35245;52.026;8.540;2022-10-17T14:23:30;11.55;;;4.65;;
49366;SDS011;35245;52.026;8.540;2022-10-17T14:26:05;11.13;;;4.30;;
49366;SDS011;35245;52.026;8.540;2022-10-17T14:28:38;14.30;;;4.55;;
49366;SDS011;35245;52.026;8.540;2022-10-17T14:31:17;9.27;;;3.95;;
49366;SDS011;35245;52.026;8.540;2022-10-17T14:33:51;11.13;;;4.25;;
49366;SDS011;35245;52.026;8.540;2022-10-17T14:36:19;8.75;;;3.95;;
49366;SDS011;35245;52.026;8.540;2022-10-17T14:38:47;9.13;;;4.05;;
49366;SDS011;35245;52.026;8.540;2022-10-17T14:41:18;8.52;;;3.40;;
49366;SDS011;35245;52.026;8.540;2022-10-17T14:43:52;8.48;;;3.88;;
49366;SDS011;35245;52.026;8.540;2022-10-17T14:46:20;10.50;;;5.57;;
49366;SDS011;35245;52.026;8.540;2022-10-17T14:48:50;10.95;;;5.00;;
49366;SDS011;35245;52.026;8.540;2022-10-17T14:51:19;10.60;;;4.65;;
49366;SDS011;35245;52.026;8.540;2022-10-17T14:53:58;8.30;;;4.35;;
49366;SDS011;35245;52.026;8.540;2022-10-17T14:56:32;8.07;;;4.90;;
49366;SDS011;35245;52.026;8.540;2022-10-17T14:59:02;20.52;;;12.85;;
49366;SDS011;35245;52.026;8.540;2022-10-17T15:01:30;8.20;;;4.10;;
49366;SDS011;35245;52.026;8.540;2022-10-17T15:03:58;12.95;;;4.50;;
49366;SDS011;35245;52.026;8.540;2022-10-17T15:06:27;11.57;;;5.18;;
49366;SDS011;35245;52.026;8.540;2022-10-17T15:08:54;7.95;;;4.63;;
49366;SDS011;35245;52.026;8.540;2022-10-17T15:11:21;9.85;;;5.30;;
49366;SDS011;35245;52.026;8.540;2022-10-17T15:13:51;12.10;;;4.72;;
49366;SDS011;35245;52.026;8.540;2022-10-17T15:16:20;9.65;;;4.85;;
49366;SDS011;35245;52.026;8.540;2022-10-17T15:18:49;8.73;;;5.03;;
49366;SDS011;35245;52.026;8.540;2022-10-17T15:21:17;11.02;;;5.47;;
49366;SDS011;35245;52.026;8.540;2022-10-17T15:23:45;8.50;;;4.60;;
49366;SDS011;35245;52.026;8.540;2022-10-17T15:26:13;11.48;;;4.57;;
49366;SDS011;35245;52.026;8.540;2022-10-17T15:28:41;10.10;;;5.20;;
49366;SDS011;35245;52.026;8.540;2022-10-17T15:31:12;8.65;;;4.82;;
49366;SDS011;35245;52.026;8.540;2022-10-17T15:33:42;9.52;;;5.00;;